Time;durP1;ratioP1;P1;durP2;ratioP2;P2;SDS_P1;SDS_P2;PMS_P1;PMS_P2;Temp;Humidity;BMP_temperature;BMP_pressure;BME280_temperature;BME280_humidity;BME280_pressure;Samples;Min_cycle;Max_cycle;Signal;HPM_P1;HPM_P2
2022/07/03 00:01:34;;;;;;;4.88;1.85;;;19.90;85.00;;;;;;5102793;28;20123;-33
2022/07/03 00:04:04;;;;;;;1.90;1.30;;;19.80;85.50;;;;;;5093050;28;20039;-33
2022/07/03 00:06:31;;;;;;;2.10;1.23;;;19.80;85.70;;;;;;5096042;28;20450;-34
2022/07/03 00:08:58;;;;;;;3.95;1.67;;;19.70;85.70;;;;;;5109082;28;20083;-32
2022/07/03 00:11:25;;;;;;;3.92;1.52;;;19.70;86.50;;;;;;5096086;28;20082;-33
2022/07/03 00:13:53;;;;;;;3.08;1.52;;;19.60;87.20;;;;;;5135888;27;20127;-33
2022/07/03 00:16:20;;;;;;;3.55;1.60;;;19.60;87.30;;;;;;5111074;28;20178;-33
2022/07/03 00:18:47;;;;;;;4.13;1.95;;;19.60;87.60;;;;;;5110142;27;20166;-33
2022/07/03 00:21:17;;;;;;;2.33;1.40;;;19.50;88.40;;;;;;5103081;27;20132;-32
2022/07/03 00:23:45;;;;;;;5.85;1.77;;;19.50;88.10;;;;;;5096208;28;20048;-33
2022/07/03 00:26:12;;;;;;;3.03;1.55;;;19.40;88.30;;;;;;5110206;27;20583;-33
2022/07/03 00:28:39;;;;;;;4.03;1.50;;;19.40;88.00;;;;;;5114545;28;20075;-33
2022/07/03 00:31:07;;;;;;;3.35;1.73;;;19.40;88.00;;;;;;5112281;27;20134;-32
2022/07/03 00:33:34;;;;;;;4.13;1.80;;;19.30;88.50;;;;;;5107254;27;20138;-32
2022/07/03 00:36:04;;;;;;;5.00;1.50;;;19.20;89.10;;;;;;5110754;28;20047;-33
2022/07/03 00:38:31;;;;;;;4.00;1.60;;;19.20;88.90;;;;;;5145652;27;20122;-31
2022/07/03 00:40:58;;;;;;;3.88;1.58;;;19.20;88.70;;;;;;5110885;28;20094;-32
2022/07/03 00:43:25;;;;;;;3.70;1.80;;;19.10;89.20;;;;;;5106968;28;20047;-33
2022/07/03 00:45:52;;;;;;;5.70;1.60;;;19.10;88.90;;;;;;5105481;27;20501;-34
2022/07/03 00:48:20;;;;;;;3.42;1.45;;;19.10;89.50;;;;;;5097146;27;20474;-33
2022/07/03 00:50:48;;;;;;;2.70;1.70;;;19.10;88.90;;;;;;5108025;27;20139;-33
2022/07/03 00:53:16;;;;;;;2.70;1.52;;;19.00;89.40;;;;;;5095283;28;20407;-32
2022/07/03 00:55:43;;;;;;;3.05;1.50;;;19.00;89.30;;;;;;5094902;28;20389;-32
2022/07/03 00:58:10;;;;;;;3.63;1.88;;;18.90;89.10;;;;;;5094948;27;20131;-43
2022/07/03 01:00:40;;;;;;;3.22;1.70;;;18.90;89.30;;;;;;5094272;27;20044;-42
2022/07/03 01:03:07;;;;;;;4.03;2.08;;;18.90;89.60;;;;;;5096944;27;20411;-42
2022/07/03 01:05:36;;;;;;;3.83;1.90;;;18.80;90.10;;;;;;5093575;27;20492;-42
2022/07/03 01:08:10;;;;;;;4.03;1.90;;;18.80;90.20;;;;;;5099556;28;20458;-42
2022/07/03 01:10:42;;;;;;;5.15;2.00;;;18.60;90.10;;;;;;5094954;28;20412;-42
2022/07/03 01:13:14;;;;;;;6.70;1.70;;;18.70;90.20;;;;;;5096548;28;20079;-42
2022/07/03 01:15:46;;;;;;;6.03;2.28;;;18.60;90.30;;;;;;5108608;27;20086;-41
2022/07/03 01:18:35;;;;;;;3.95;2.10;;;18.60;90.40;;;;;;5095310;28;20148;-42
2022/07/03 01:21:07;;;;;;;2.45;1.77;;;18.50;90.60;;;;;;5127393;27;20134;-43
2022/07/03 01:23:48;;;;;;;3.63;1.70;;;18.50;90.80;;;;;;5094611;28;20083;-42
2022/07/03 01:26:16;;;;;;;3.10;2.00;;;18.50;90.70;;;;;;5094550;28;20127;-42
2022/07/03 01:28:44;;;;;;;2.42;1.77;;;18.40;90.70;;;;;;5110067;27;20090;-42
2022/07/03 01:31:10;;;;;;;2.97;2.28;;;18.40;91.00;;;;;;5114008;28;20134;-42
2022/07/03 01:33:37;;;;;;;4.63;2.35;;;18.30;91.10;;;;;;5113802;28;20132;-42
2022/07/03 01:36:05;;;;;;;2.95;1.80;;;18.30;91.20;;;;;;5106078;28;20138;-43
2022/07/03 01:38:33;;;;;;;3.85;1.98;;;18.30;91.10;;;;;;5095731;28;20510;-42
2022/07/03 01:41:00;;;;;;;4.18;1.95;;;18.20;91.20;;;;;;5098114;27;20155;-42
2022/07/03 01:43:31;;;;;;;2.95;1.98;;;18.20;91.30;;;;;;5102877;28;20048;-42
2022/07/03 01:45:58;;;;;;;3.67;2.28;;;18.20;91.80;;;;;;5094109;28;20075;-42
2022/07/03 01:48:25;;;;;;;3.22;1.73;;;18.20;91.90;;;;;;5106080;28;20051;-42
2022/07/03 01:50:52;;;;;;;4.47;2.28;;;18.10;91.70;;;;;;5132153;27;20517;-42
2022/07/03 01:53:19;;;;;;;3.60;1.98;;;18.10;91.90;;;;;;5094099;28;20560;-42
2022/07/03 01:55:46;;;;;;;3.70;2.25;;;18.10;91.90;;;;;;5093634;28;20119;-42
2022/07/03 01:58:13;;;;;;;3.70;2.13;;;18.00;91.90;;;;;;5126300;27;20135;-42
2022/07/03 02:00:47;;;;;;;6.28;2.50;;;18.00;92.00;;;;;;5093649;27;20101;-42
2022/07/03 02:03:39;;;;;;;4.50;2.78;;;17.90;92.00;;;;;;5095960;28;20078;-42
2022/07/03 02:06:08;;;;;;;4.57;2.55;;;17.90;92.60;;;;;;5093380;28;20389;-42
2022/07/03 02:08:39;;;;;;;4.10;2.20;;;17.80;92.90;;;;;;5094482;28;20055;-42
2022/07/03 02:11:14;;;;;;;4.78;2.25;;;17.80;92.70;;;;;;5111498;28;20124;-42
2022/07/03 02:13:51;;;;;;;7.03;2.55;;;17.80;92.70;;;;;;5111981;28;20122;-42
2022/07/03 02:16:21;;;;;;;4.07;2.28;;;17.70;92.50;;;;;;5100361;28;20080;-42
2022/07/03 02:18:51;;;;;;;3.90;2.00;;;17.60;92.60;;;;;;5103720;27;20541;-42
2022/07/03 02:21:19;;;;;;;4.35;1.95;;;17.60;92.60;;;;;;5106505;28;20526;-41
2022/07/03 02:23:52;;;;;;;3.28;2.00;;;17.60;92.60;;;;;;5093134;28;20075;-42
2022/07/03 02:26:19;;;;;;;3.45;2.35;;;17.50;92.50;;;;;;5095036;28;20091;-42
2022/07/03 02:28:59;;;;;;;7.03;3.10;;;17.50;92.90;;;;;;5125884;27;20539;-41
2022/07/03 02:31:27;;;;;;;4.35;2.47;;;17.50;93.40;;;;;;5092761;27;20052;-42
2022/07/03 02:33:58;;;;;;;3.50;2.50;;;17.40;93.50;;;;;;5097972;28;20082;-42
2022/07/03 02:36:26;;;;;;;3.47;2.30;;;17.40;93.60;;;;;;5111017;28;20055;-42
2022/07/03 02:38:54;;;;;;;5.03;2.35;;;17.30;93.50;;;;;;5097297;28;20488;-42
2022/07/03 02:41:24;;;;;;;3.88;2.90;;;17.30;93.40;;;;;;5093276;28;20135;-42
2022/07/03 02:43:58;;;;;;;4.18;3.00;;;17.30;93.60;;;;;;5093061;28;20403;-42
2022/07/03 02:46:50;;;;;;;3.72;2.42;;;17.20;94.30;;;;;;5134159;27;20462;-41
2022/07/03 02:49:23;;;;;;;5.20;3.17;;;17.10;94.40;;;;;;5101558;28;20128;-41
2022/07/03 02:51:53;;;;;;;5.10;2.50;;;17.00;95.20;;;;;;5109714;28;20055;-42
2022/07/03 02:54:20;;;;;;;3.55;2.67;;;17.00;95.10;;;;;;5113444;28;20510;-42
2022/07/03 02:56:52;;;;;;;3.65;2.72;;;16.90;95.00;;;;;;5100921;28;20138;-42
2022/07/03 02:59:23;;;;;;;4.57;2.53;;;16.90;94.80;;;;;;5098216;28;20099;-42
2022/07/03 03:02:14;;;;;;;3.30;2.40;;;16.90;94.70;;;;;;5129156;27;20090;-41
2022/07/03 03:04:42;;;;;;;8.75;3.80;;;16.90;94.10;;;;;;5100300;28;20075;-42
2022/07/03 03:07:09;;;;;;;3.58;2.80;;;16.80;95.00;;;;;;5096686;27;20119;-42
2022/07/03 03:09:42;;;;;;;6.28;3.42;;;16.80;94.90;;;;;;5129310;27;20142;-43
2022/07/03 03:12:09;;;;;;;4.70;3.15;;;16.80;95.00;;;;;;5110983;28;20090;-43
2022/07/03 03:14:39;;;;;;;4.40;3.10;;;16.70;95.00;;;;;;5095279;28;20087;-43
2022/07/03 03:17:08;;;;;;;4.80;2.63;;;16.70;94.90;;;;;;5099051;28;20064;-41
2022/07/03 03:19:40;;;;;;;5.15;3.05;;;16.70;94.50;;;;;;5103159;28;20101;-41
2022/07/03 03:22:12;;;;;;;6.53;3.58;;;16.70;94.70;;;;;;5102049;28;20104;-41
2022/07/03 03:24:38;;;;;;;;;;;16.70;94.90;;;;;;5092894;28;20044;-42
2022/07/03 03:27:05;;;;;;;7.25;3.28;;;16.60;93.50;;;;;;5091614;28;20011;-41
2022/07/03 03:29:32;;;;;;;7.35;2.70;;;16.60;94.80;;;;;;5094062;28;20080;-41
2022/07/03 03:31:59;;;;;;;4.63;3.13;;;16.60;94.70;;;;;;5093768;28;20044;-42
2022/07/03 03:34:27;;;;;;;3.90;3.20;;;16.60;94.80;;;;;;5091760;28;20136;-42
2022/07/03 03:36:54;;;;;;;5.80;3.30;;;16.60;94.70;;;;;;5105537;28;20484;-42
2022/07/03 03:39:20;;;;;;;4.95;2.80;;;16.60;95.00;;;;;;5092014;28;20135;-41
2022/07/03 03:41:47;;;;;;;5.38;3.42;;;16.60;94.60;;;;;;5109020;28;20044;-41
2022/07/03 03:44:14;;;;;;;4.10;2.78;;;16.60;94.60;;;;;;5101094;28;20075;-41
2022/07/03 03:46:41;;;;;;;4.68;3.45;;;16.60;94.40;;;;;;5126077;27;20094;-41
2022/07/03 03:49:07;;;;;;;4.10;3.67;;;16.60;94.70;;;;;;5105664;27;20399;-42
2022/07/03 03:51:35;;;;;;;3.47;2.85;;;16.60;95.10;;;;;;5108946;28;20558;-42
2022/07/03 03:54:04;;;;;;;4.57;3.00;;;16.50;94.90;;;;;;5098536;28;20088;-42
2022/07/03 03:56:31;;;;;;;4.35;2.70;;;16.60;95.10;;;;;;5096402;27;20052;-41
2022/07/03 03:58:57;;;;;;;4.80;2.92;;;16.60;95.00;;;;;;5099620;27;20131;-42
2022/07/03 04:01:24;;;;;;;4.78;3.30;;;16.50;95.20;;;;;;5095807;27;20178;-42
2022/07/03 04:03:51;;;;;;;4.07;3.45;;;16.50;95.40;;;;;;5137605;27;20126;-43
2022/07/03 04:06:19;;;;;;;4.95;3.08;;;16.50;95.30;;;;;;5105196;28;20150;-43
2022/07/03 04:08:48;;;;;;;5.85;3.28;;;16.50;95.40;;;;;;5101324;27;20597;-42
2022/07/03 04:11:14;;;;;;;4.93;4.43;;;16.60;95.30;;;;;;5102280;27;20462;-43
2022/07/03 04:13:41;;;;;;;3.95;3.05;;;16.50;95.80;;;;;;5103261;28;20547;-43
2022/07/03 04:16:08;;;;;;;5.00;3.30;;;16.50;95.90;;;;;;5106813;27;20136;-41
2022/07/03 04:18:35;;;;;;;4.40;3.22;;;16.50;95.90;;;;;;5099458;28;20098;-42
2022/07/03 04:21:01;;;;;;;3.92;3.30;;;16.50;96.10;;;;;;5095810;27;20040;-42
2022/07/03 04:23:28;;;;;;;4.75;3.75;;;16.60;95.80;;;;;;5100105;27;20086;-42
2022/07/03 04:25:56;;;;;;;8.05;4.00;;;16.60;95.90;;;;;;5108086;28;20084;-42
2022/07/03 04:28:23;;;;;;;4.68;3.72;;;16.60;96.40;;;;;;5104127;27;20503;-42
2022/07/03 04:30:50;;;;;;;4.00;3.35;;;16.50;96.00;;;;;;5095541;28;20067;-41
2022/07/03 04:33:16;;;;;;;3.88;3.38;;;16.60;96.00;;;;;;5095316;27;20102;-42
2022/07/03 04:35:43;;;;;;;6.22;2.97;;;16.60;95.70;;;;;;5106070;28;20567;-42
2022/07/03 04:38:10;;;;;;;5.88;3.90;;;16.50;95.80;;;;;;5098853;27;20131;-43
2022/07/03 04:40:37;;;;;;;5.63;3.67;;;16.60;95.90;;;;;;5102815;28;20082;-42
2022/07/03 04:43:05;;;;;;;7.03;3.10;;;16.50;96.00;;;;;;5115044;28;20079;-41
2022/07/03 04:45:32;;;;;;;7.43;3.47;;;16.60;96.00;;;;;;5115427;28;20415;-42
2022/07/03 04:47:58;;;;;;;6.35;4.18;;;16.50;95.70;;;;;;5113927;28;20083;-42
2022/07/03 04:50:25;;;;;;;5.78;3.60;;;16.50;95.90;;;;;;5110382;28;20126;-43
2022/07/03 04:52:52;;;;;;;11.65;4.40;;;16.50;96.10;;;;;;5095218;28;20535;-42
2022/07/03 04:55:19;;;;;;;7.75;3.35;;;16.60;96.30;;;;;;5098195;28;20459;-42
2022/07/03 04:57:45;;;;;;;5.88;3.50;;;16.50;96.00;;;;;;5101545;28;20543;-42
2022/07/03 05:00:14;;;;;;;5.88;3.70;;;16.60;95.90;;;;;;5099729;28;20088;-43
2022/07/03 05:02:41;;;;;;;6.13;4.43;;;16.60;95.80;;;;;;5093861;28;20131;-42
2022/07/03 05:05:08;;;;;;;6.85;4.22;;;16.60;96.30;;;;;;5103300;27;20135;-42
2022/07/03 05:07:35;;;;;;;5.13;3.53;;;16.60;96.50;;;;;;5102448;28;20126;-42
2022/07/03 05:10:02;;;;;;;8.20;3.33;;;16.50;96.20;;;;;;5111536;28;20075;-42
2022/07/03 05:12:28;;;;;;;6.07;4.55;;;16.60;96.10;;;;;;5109151;27;20123;-41
2022/07/03 05:14:55;;;;;;;5.60;3.78;;;16.60;96.70;;;;;;5098223;28;20128;-41
2022/07/03 05:17:23;;;;;;;6.18;4.10;;;16.70;96.60;;;;;;5107804;28;20444;-42
2022/07/03 05:20:23;;;;;;;7.93;4.10;;;16.70;96.60;;;;;;5111405;28;20139;-44
2022/07/03 05:22:38;;;;;;;4.60;3.53;;;16.70;96.60;;;;;;5113590;28;20043;-42
2022/07/03 05:25:05;;;;;;;7.93;3.67;;;16.80;96.40;;;;;;5115151;28;20087;-43
2022/07/03 05:27:32;;;;;;;6.43;3.80;;;16.90;96.50;;;;;;5115136;28;20091;-43
2022/07/03 05:29:59;;;;;;;5.78;4.32;;;17.00;96.40;;;;;;5115284;28;20043;-43
2022/07/03 05:32:27;;;;;;;7.70;4.95;;;17.10;96.90;;;;;;5109466;28;20121;-43
2022/07/03 05:34:54;;;;;;;5.55;4.70;;;17.20;97.20;;;;;;5094936;28;20130;-42
2022/07/03 05:37:20;;;;;;;9.25;5.65;;;17.30;97.30;;;;;;5109995;27;20737;-42
2022/07/03 05:39:47;;;;;;;7.40;5.28;;;17.50;97.60;;;;;;5098015;28;20123;-42
2022/07/03 05:42:14;;;;;;;6.53;4.40;;;17.60;97.90;;;;;;5105076;28;20090;-42
2022/07/03 05:44:40;;;;;;;9.00;4.03;;;17.70;98.00;;;;;;5113721;28;20086;-42
2022/07/03 05:47:07;;;;;;;4.78;4.25;;;17.80;97.90;;;;;;5095906;28;20127;-42
2022/07/03 05:49:35;;;;;;;6.43;4.57;;;18.00;97.90;;;;;;5095982;28;20130;-42
2022/07/03 05:52:02;;;;;;;5.63;3.88;;;18.20;98.00;;;;;;5106685;27;20043;-42
2022/07/03 05:54:29;;;;;;;10.05;3.70;;;18.30;97.80;;;;;;5102742;28;20098;-42
2022/07/03 05:56:56;;;;;;;12.48;3.22;;;18.40;97.60;;;;;;5093475;28;20051;-42
2022/07/03 05:59:22;;;;;;;7.10;3.88;;;18.60;97.40;;;;;;5110214;28;20114;-43
2022/07/03 06:01:49;;;;;;;9.05;3.28;;;18.70;97.20;;;;;;5114288;28;20527;-42
2022/07/03 06:04:16;;;;;;;7.63;2.50;;;18.80;96.70;;;;;;5111065;28;20452;-43
2022/07/03 06:06:44;;;;;;;4.93;2.42;;;19.00;96.10;;;;;;5099021;27;20066;-42
2022/07/03 06:09:11;;;;;;;10.52;2.70;;;19.10;95.80;;;;;;5100818;27;20123;-42
2022/07/03 06:11:38;;;;;;;3.92;2.50;;;19.30;95.50;;;;;;5092480;28;20109;-42
2022/07/03 06:14:04;;;;;;;4.75;2.50;;;19.40;95.40;;;;;;5104607;28;20044;-43
2022/07/03 06:16:32;;;;;;;5.18;2.67;;;19.50;95.30;;;;;;5113872;28;20059;-43
2022/07/03 06:18:59;;;;;;;7.35;2.42;;;19.60;95.40;;;;;;5098234;28;20510;-42
2022/07/03 06:21:26;;;;;;;4.57;2.60;;;19.60;95.50;;;;;;5103890;28;20470;-43
2022/07/03 06:23:54;;;;;;;5.35;2.15;;;19.70;95.50;;;;;;5092624;27;20123;-42
2022/07/03 06:26:20;;;;;;;5.97;2.50;;;19.80;95.30;;;;;;5092045;28;20444;-42
2022/07/03 06:28:47;;;;;;;6.20;2.55;;;20.00;95.30;;;;;;5095502;28;20112;-43
2022/07/03 06:31:14;;;;;;;6.40;2.13;;;20.10;95.30;;;;;;5102665;28;20086;-42
2022/07/03 06:33:41;;;;;;;4.82;2.22;;;20.20;95.10;;;;;;5099002;27;20075;-42
2022/07/03 06:36:08;;;;;;;4.55;2.13;;;20.40;94.40;;;;;;5092821;27;20139;-43
2022/07/03 06:38:34;;;;;;;9.45;2.45;;;20.50;94.10;;;;;;5104777;28;20075;-43
2022/07/03 06:41:02;;;;;;;4.40;1.63;;;20.60;93.60;;;;;;5095851;27;20117;-43
2022/07/03 06:43:29;;;;;;;6.95;2.20;;;20.60;93.40;;;;;;5131828;27;20135;-43
2022/07/03 06:45:56;;;;;;;5.57;2.00;;;20.70;93.60;;;;;;5100199;27;20143;-43
2022/07/03 06:48:23;;;;;;;4.25;1.83;;;20.90;93.30;;;;;;5105444;27;20086;-42
2022/07/03 06:50:49;;;;;;;5.63;1.88;;;21.00;93.30;;;;;;5096576;27;20040;-42
2022/07/03 06:53:16;;;;;;;8.70;1.92;;;21.20;93.10;;;;;;5125326;27;20094;-43
2022/07/03 06:55:43;;;;;;;4.80;1.83;;;21.30;93.00;;;;;;5095611;27;20089;-43
2022/07/03 06:58:11;;;;;;;8.20;1.80;;;21.40;92.70;;;;;;5099509;28;20065;-43
2022/07/03 07:00:38;;;;;;;5.80;1.90;;;21.60;92.30;;;;;;5106232;28;20082;-43
2022/07/03 07:03:05;;;;;;;7.10;1.50;;;21.70;92.40;;;;;;5091610;28;20569;-41
2022/07/03 07:05:32;;;;;;;4.38;1.33;;;21.80;92.20;;;;;;5101417;27;20226;-43
2022/07/03 07:07:58;;;;;;;2.35;1.40;;;22.00;91.70;;;;;;5108353;28;20071;-43
2022/07/03 07:10:25;;;;;;;3.85;1.50;;;22.00;91.30;;;;;;5095707;28;20082;-43
2022/07/03 07:12:52;;;;;;;4.47;1.05;;;22.10;91.20;;;;;;5092586;28;20491;-43
2022/07/03 07:15:20;;;;;;;4.55;1.00;;;22.10;90.90;;;;;;5102943;27;20538;-42
2022/07/03 07:17:47;;;;;;;1.90;1.10;;;22.10;90.80;;;;;;5095885;28;20096;-43
2022/07/03 07:20:14;;;;;;;4.95;1.20;;;22.20;90.80;;;;;;5106603;28;20122;-43
2022/07/03 07:22:40;;;;;;;4.57;1.50;;;22.30;90.70;;;;;;5109683;27;20094;-42
2022/07/03 07:25:08;;;;;;;5.85;1.15;;;22.40;90.70;;;;;;5112731;27;20148;-42
2022/07/03 07:27:35;;;;;;;5.50;1.70;;;22.40;90.60;;;;;;5098963;27;20048;-43
2022/07/03 07:30:01;;;;;;;3.65;1.40;;;22.40;90.70;;;;;;5097579;27;20060;-43
2022/07/03 07:32:29;;;;;;;4.15;1.48;;;22.40;90.30;;;;;;5115696;28;20130;-43
2022/07/03 07:34:56;;;;;;;4.00;1.70;;;22.50;90.40;;;;;;5106514;27;20058;-42
2022/07/03 07:37:23;;;;;;;4.97;1.60;;;22.60;90.60;;;;;;5107162;27;20048;-43
2022/07/03 07:39:50;;;;;;;4.03;1.60;;;22.70;90.60;;;;;;5114898;27;20083;-42
2022/07/03 07:42:16;;;;;;;5.93;1.77;;;22.80;90.30;;;;;;5112392;27;20126;-42
2022/07/03 07:44:43;;;;;;;7.60;1.90;;;22.90;90.00;;;;;;5099711;27;20047;-43
2022/07/03 07:47:10;;;;;;;5.82;1.50;;;23.00;89.80;;;;;;5101563;27;20048;-43
2022/07/03 07:49:38;;;;;;;5.63;1.27;;;23.10;89.00;;;;;;5107822;27;20073;-42
2022/07/03 07:52:05;;;;;;;4.00;1.77;;;23.30;88.60;;;;;;5106171;27;20427;-44
2022/07/03 07:54:32;;;;;;;4.95;1.73;;;23.50;88.10;;;;;;5112056;27;20058;-42
2022/07/03 07:56:59;;;;;;;3.78;1.80;;;23.70;87.60;;;;;;5101827;27;20048;-43
2022/07/03 07:59:26;;;;;;;4.63;1.30;;;23.80;87.00;;;;;;5101275;27;20465;-43
2022/07/03 08:07:21;;;;;;;3.72;1.30;;;24.10;85.60;;;;;;5103811;27;20094;-42
2022/07/03 08:09:48;;;;;;;3.17;1.45;;;24.10;85.50;;;;;;5103393;27;20093;-43
2022/07/03 08:12:15;;;;;;;4.25;1.33;;;24.10;85.40;;;;;;5103093;27;20449;-43
2022/07/03 08:14:42;;;;;;;4.18;1.60;;;24.10;85.20;;;;;;5106411;27;20082;-43
2022/07/03 08:17:09;;;;;;;3.40;1.35;;;24.00;85.00;;;;;;5096323;27;20051;-43
2022/07/03 08:19:35;;;;;;;4.68;1.33;;;23.90;85.20;;;;;;5108807;27;20130;-43
2022/07/03 08:22:04;;;;;;;3.20;1.13;;;23.80;86.40;;;;;;5104047;27;20047;-43
2022/07/03 08:24:31;;;;;;;3.75;1.02;;;23.80;85.20;;;;;;5097719;27;20061;-43
2022/07/03 08:26:58;;;;;;;3.90;1.10;;;23.70;84.40;;;;;;5098317;27;20128;-43
2022/07/03 08:29:25;;;;;;;4.82;1.00;;;23.70;84.00;;;;;;5095724;27;20466;-44
2022/07/03 08:31:52;;;;;;;4.00;1.13;;;23.80;84.10;;;;;;5107560;27;20515;-43
2022/07/03 08:34:19;;;;;;;4.50;1.17;;;24.10;83.80;;;;;;5113624;28;20082;-43
2022/07/03 08:36:45;;;;;;;11.45;1.40;;;24.30;83.90;;;;;;5103942;27;20143;-43
2022/07/03 08:39:13;;;;;;;5.82;1.33;;;24.50;83.20;;;;;;5101613;28;20083;-42
2022/07/03 08:41:41;;;;;;;4.07;1.30;;;24.70;83.50;;;;;;5096453;27;20128;-43
2022/07/03 08:44:09;;;;;;;3.15;1.27;;;24.80;82.50;;;;;;5099495;28;20052;-44
2022/07/03 08:46:36;;;;;;;5.93;1.20;;;25.00;82.60;;;;;;5094926;27;20079;-43
2022/07/03 08:49:03;;;;;;;3.92;1.35;;;25.00;81.50;;;;;;5088832;27;20130;-43
2022/07/03 08:51:30;;;;;;;5.10;1.02;;;25.00;80.50;;;;;;5091337;27;20132;-45
2022/07/03 08:53:56;;;;;;;3.00;1.20;;;25.10;80.90;;;;;;5093052;27;20163;-43
2022/07/03 08:56:25;;;;;;;3.53;0.98;;;25.20;80.10;;;;;;5103402;27;20471;-44
2022/07/03 08:58:52;;;;;;;4.95;0.98;;;25.40;79.50;;;;;;5092639;27;20508;-43
2022/07/03 09:01:19;;;;;;;5.40;1.55;;;25.30;79.50;;;;;;5102984;27;20076;-43
2022/07/03 09:03:46;;;;;;;4.22;1.33;;;25.40;78.40;;;;;;5096821;28;20065;-42
2022/07/03 09:06:13;;;;;;;4.38;1.20;;;25.50;77.60;;;;;;5097239;27;20097;-43
2022/07/03 09:08:40;;;;;;;1.85;0.75;;;25.70;77.40;;;;;;5095205;28;20079;-42
2022/07/03 09:11:07;;;;;;;2.28;1.00;;;25.90;76.60;;;;;;5100990;27;20079;-44
2022/07/03 09:13:35;;;;;;;4.47;1.02;;;26.00;75.50;;;;;;5093792;27;20114;-44
2022/07/03 09:16:02;;;;;;;3.33;1.10;;;26.00;75.10;;;;;;5102094;27;20114;-42
2022/07/03 09:18:39;;;;;;;5.30;1.10;;;26.10;74.50;;;;;;5109080;27;20105;-43
2022/07/03 09:21:06;;;;;;;4.07;1.10;;;26.30;75.30;;;;;;5097736;27;20040;-43
2022/07/03 09:23:36;;;;;;;3.60;0.75;;;26.30;75.40;;;;;;5097144;27;20040;-43
2022/07/03 09:26:03;;;;;;;2.95;0.45;;;26.50;72.90;;;;;;5106053;27;20052;-44
2022/07/03 09:28:44;;;;;;;2.22;0.60;;;26.40;68.70;;;;;;5095149;27;20532;-42
2022/07/03 09:31:11;;;;;;;1.55;0.60;;;26.50;68.50;;;;;;5092692;27;20377;-44
2022/07/03 09:33:50;;;;;;;1.42;0.63;;;26.50;66.30;;;;;;5074793;28;20131;-44
2022/07/03 09:36:17;;;;;;;1.92;0.75;;;26.60;65.70;;;;;;5092972;27;20177;-44
2022/07/03 09:38:44;;;;;;;1.92;0.60;;;26.70;66.40;;;;;;5095217;27;20473;-44
2022/07/03 09:41:11;;;;;;;4.10;0.65;;;26.70;66.70;;;;;;5096740;27;20050;-43
2022/07/03 09:43:41;;;;;;;2.90;0.70;;;26.90;65.60;;;;;;5099856;27;20067;-42
2022/07/03 09:46:09;;;;;;;4.00;0.95;;;27.10;64.70;;;;;;5100700;27;20131;-43
2022/07/03 09:48:37;;;;;;;4.63;0.90;;;27.30;64.10;;;;;;5100860;27;20140;-44
2022/07/03 09:51:15;;;;;;;3.75;1.00;;;27.30;64.80;;;;;;5102500;28;20132;-43
2022/07/03 09:53:52;;;;;;;5.00;1.00;;;27.60;65.10;;;;;;5102024;28;20131;-44
2022/07/03 09:56:19;;;;;;;3.50;0.60;;;27.70;63.90;;;;;;5102042;27;20139;-42
2022/07/03 09:59:07;;;;;;;2.30;0.60;;;27.70;64.30;;;;;;5099647;28;20075;-43
2022/07/03 10:01:35;;;;;;;1.95;0.60;;;27.70;63.10;;;;;;5104664;28;20479;-43
2022/07/03 10:04:16;;;;;;;2.65;0.80;;;27.60;63.60;;;;;;5107316;27;20132;-43
2022/07/03 10:06:47;;;;;;;1.88;0.75;;;27.70;64.20;;;;;;5104559;27;20557;-42
2022/07/03 10:09:14;;;;;;;;;;;27.70;63.90;;;;;;5097887;27;20506;-43
2022/07/03 10:11:41;;;;;;;2.20;0.80;;;27.60;63.70;;;;;;5098793;27;19959;-45
2022/07/03 10:14:07;;;;;;;3.17;0.80;;;27.60;64.20;;;;;;5093270;27;20072;-44
2022/07/03 10:16:36;;;;;;;5.22;0.80;;;27.60;62.40;;;;;;5091645;27;20083;-44
2022/07/03 10:19:02;;;;;;;5.65;0.82;;;27.70;61.70;;;;;;5091094;27;20040;-42
2022/07/03 10:21:29;;;;;;;2.80;0.85;;;27.80;60.90;;;;;;5096007;28;20039;-44
2022/07/03 10:23:56;;;;;;;3.67;1.00;;;27.80;60.60;;;;;;5099448;27;20131;-44
2022/07/03 10:26:23;;;;;;;2.03;0.70;;;27.60;61.00;;;;;;5104206;28;20075;-42
2022/07/03 10:28:49;;;;;;;5.03;0.90;;;27.60;61.50;;;;;;5095419;28;20091;-43
2022/07/03 10:31:16;;;;;;;2.35;0.90;;;27.70;60.90;;;;;;5101448;28;20048;-42
2022/07/03 10:33:44;;;;;;;4.97;1.08;;;27.80;60.10;;;;;;5104213;28;20132;-43
2022/07/03 10:36:11;;;;;;;2.53;1.15;;;27.90;60.50;;;;;;5107335;28;20044;-44
2022/07/03 10:38:39;;;;;;;1.45;0.75;;;28.00;59.50;;;;;;5104812;27;20071;-43
2022/07/03 10:46:37;;;;;;;0.85;0.40;;;28.00;60.00;;;;;;5110487;28;20411;-43
2022/07/03 10:49:06;;;;;;;2.90;0.70;;;28.20;60.00;;;;;;5100951;27;20052;-44
2022/07/03 10:51:48;;;;;;;2.60;0.80;;;28.40;58.80;;;;;;5112016;28;20047;-43
2022/07/03 10:54:19;;;;;;;3.28;0.90;;;28.50;58.60;;;;;;5101636;28;20071;-43
2022/07/03 10:57:06;;;;;;;1.23;0.77;;;28.60;59.40;;;;;;5100465;28;20078;-42
2022/07/03 11:00:00;;;;;;;1.63;0.77;;;28.70;59.70;;;;;;5100882;28;20078;-44
2022/07/03 11:02:28;;;;;;;2.40;0.70;;;28.80;59.20;;;;;;5094164;28;20461;-43
2022/07/03 11:05:12;;;;;;;2.70;0.90;;;28.90;57.20;;;;;;5099466;28;20229;-42
2022/07/03 11:08:04;;;;;;;1.00;0.60;;;29.00;57.00;;;;;;5104781;28;20039;-44
2022/07/03 11:10:32;;;;;;;1.90;0.60;;;28.90;55.70;;;;;;5099495;27;20075;-44
2022/07/03 11:13:00;;;;;;;4.10;0.90;;;28.90;56.30;;;;;;5105490;28;20135;-42
2022/07/03 11:15:27;;;;;;;1.95;0.80;;;29.00;56.90;;;;;;5105429;28;20083;-44
2022/07/03 11:18:25;;;;;;;1.95;0.80;;;29.20;57.10;;;;;;5106317;28;20062;-42
2022/07/03 11:21:31;;;;;;;4.50;1.02;;;29.30;57.00;;;;;;5110122;28;20085;-43
2022/07/03 11:24:22;;;;;;;2.50;0.80;;;29.20;57.30;;;;;;5093530;28;20125;-43
2022/07/03 11:27:04;;;;;;;;;;;29.10;58.70;;;;;;5105905;28;20139;-43
2022/07/03 11:29:30;;;;;;;4.95;0.95;;;29.00;59.10;;;;;;5095359;28;19927;-42
2022/07/03 11:31:57;;;;;;;6.03;1.20;;;28.90;59.50;;;;;;5101269;28;20138;-43
2022/07/03 11:34:24;;;;;;;1.20;0.82;;;28.80;59.30;;;;;;5112470;28;20147;-43
2022/07/03 11:36:52;;;;;;;4.93;1.15;;;28.70;59.20;;;;;;5099844;28;20127;-43
2022/07/03 11:39:20;;;;;;;5.32;1.20;;;28.60;57.70;;;;;;5104385;28;20498;-43
2022/07/03 11:41:47;;;;;;;3.42;0.85;;;28.50;59.50;;;;;;5098924;28;20059;-43
2022/07/03 11:44:21;;;;;;;3.28;1.38;;;28.50;58.80;;;;;;5103256;28;20498;-42
2022/07/03 11:46:50;;;;;;;3.05;1.13;;;28.60;59.30;;;;;;5099614;28;20079;-43
2022/07/03 11:49:17;;;;;;;2.85;0.90;;;28.50;60.40;;;;;;5095296;28;20503;-43
2022/07/03 11:51:54;;;;;;;3.03;0.82;;;28.40;59.40;;;;;;5106950;28;20130;-42
2022/07/03 11:54:22;;;;;;;3.15;0.90;;;28.30;60.30;;;;;;5100623;28;20139;-42
2022/07/03 11:56:48;;;;;;;2.55;1.00;;;28.50;60.20;;;;;;5095256;28;20079;-43
2022/07/03 11:59:15;;;;;;;4.13;1.08;;;28.70;59.50;;;;;;5095899;28;20052;-43
2022/07/03 12:01:42;;;;;;;4.22;0.88;;;28.70;59.70;;;;;;5092407;28;20127;-43
2022/07/03 12:04:09;;;;;;;4.85;1.30;;;28.80;59.40;;;;;;5099404;28;20051;-43
2022/07/03 12:06:37;;;;;;;3.30;0.98;;;28.90;59.10;;;;;;5105277;28;20101;-43
2022/07/03 12:09:12;;;;;;;2.85;1.20;;;28.90;59.70;;;;;;5111346;28;20552;-43
2022/07/03 12:11:40;;;;;;;4.88;1.13;;;29.00;59.10;;;;;;5104513;27;20071;-43
2022/07/03 12:14:07;;;;;;;3.97;1.10;;;29.00;59.00;;;;;;5109378;28;20047;-43
2022/07/03 12:16:34;;;;;;;3.85;1.00;;;29.00;59.30;;;;;;5116413;28;20095;-44
2022/07/03 12:19:04;;;;;;;3.17;0.98;;;29.30;59.50;;;;;;5112044;27;20513;-43
2022/07/03 12:21:37;;;;;;;2.08;0.90;;;29.30;58.80;;;;;;5095563;28;20462;-43
2022/07/03 12:24:12;;;;;;;2.38;1.00;;;29.30;58.50;;;;;;5130725;27;20055;-43
2022/07/03 12:26:40;;;;;;;3.83;1.30;;;29.20;58.90;;;;;;5116371;27;20087;-43
2022/07/03 12:29:08;;;;;;;4.07;0.80;;;29.20;59.30;;;;;;5114996;28;20126;-45
2022/07/03 12:31:35;;;;;;;2.10;1.00;;;29.10;58.70;;;;;;5116003;28;20536;-42
2022/07/03 12:34:02;;;;;;;5.88;1.33;;;29.00;58.10;;;;;;5114462;28;20517;-42
2022/07/03 12:36:29;;;;;;;5.32;1.00;;;28.90;58.30;;;;;;5114990;28;20043;-43
2022/07/03 12:38:57;;;;;;;4.38;1.00;;;28.70;58.20;;;;;;5113572;28;20517;-42
2022/07/03 12:41:24;;;;;;;3.08;1.00;;;28.60;59.10;;;;;;5110198;27;20078;-43
2022/07/03 12:43:52;;;;;;;6.78;1.33;;;28.50;60.00;;;;;;5099194;27;20110;-42
2022/07/03 12:46:20;;;;;;;3.05;1.00;;;28.50;59.00;;;;;;5103361;27;20147;-44
2022/07/03 12:48:51;;;;;;;2.95;1.00;;;28.50;60.10;;;;;;5133589;27;20138;-43
2022/07/03 12:51:18;;;;;;;6.10;1.13;;;28.60;60.00;;;;;;5101796;27;20044;-43
2022/07/03 12:53:45;;;;;;;3.28;0.93;;;28.60;59.40;;;;;;5096228;27;20056;-43
2022/07/03 12:56:12;;;;;;;5.00;1.13;;;28.60;59.90;;;;;;5102295;27;20130;-43
2022/07/03 13:01:29;;;;;;;6.50;1.25;;;28.50;60.70;;;;;;5113294;27;20051;-42
2022/07/03 13:03:56;;;;;;;4.28;1.20;;;28.40;60.80;;;;;;5097983;28;20091;-43
2022/07/03 13:06:24;;;;;;;4.57;1.30;;;28.40;61.20;;;;;;5101870;27;20047;-43
2022/07/03 13:08:53;;;;;;;15.60;1.05;;;28.60;60.20;;;;;;5095344;27;20044;-43
2022/07/03 13:11:27;;;;;;;2.88;0.88;;;28.90;59.10;;;;;;5093633;28;20543;-43